createdAt,value
2023-05-21T00:01:10.700Z,3.17
2023-05-21T00:03:42.350Z,3.20
2023-05-21T00:06:10.677Z,3.83
2023-05-21T00:08:40.243Z,3.50
2023-05-21T00:11:11.140Z,2.83
2023-05-21T00:13:39.560Z,3.08
2023-05-21T00:16:08.408Z,3.30
2023-05-21T00:18:36.552Z,3.10
2023-05-21T00:21:04.913Z,3.65
2023-05-21T00:23:34.149Z,3.45
2023-05-21T00:26:03.644Z,3.30
2023-05-21T00:28:31.742Z,3.63
2023-05-21T00:30:59.893Z,3.55
2023-05-21T00:33:29.145Z,3.28
2023-05-21T00:35:57.474Z,3.70
2023-05-21T00:38:27.985Z,3.22
2023-05-21T00:40:56.115Z,3.55
2023-05-21T00:43:26.676Z,3.47
2023-05-21T00:45:56.442Z,3.60
2023-05-21T00:48:25.240Z,3.50
2023-05-21T00:50:53.922Z,3.67
2023-05-21T00:53:22.199Z,3.70
2023-05-21T00:55:52.044Z,4.53
2023-05-21T00:58:20.485Z,3.50
2023-05-21T01:00:50.151Z,3.28
2023-05-21T01:03:19.195Z,3.80
2023-05-21T01:05:48.804Z,3.65
2023-05-21T01:08:20.856Z,3.67
2023-05-21T01:10:49.284Z,3.97
2023-05-21T01:13:18.273Z,3.92
2023-05-21T01:15:46.693Z,3.72
2023-05-21T01:18:20.208Z,3.60
2023-05-21T01:20:49.288Z,4.07
2023-05-21T01:23:19.505Z,4.05
2023-05-21T01:25:48.465Z,3.90
2023-05-21T01:28:16.674Z,4.25
2023-05-21T01:30:45.120Z,4.68
2023-05-21T01:33:18.522Z,4.63
2023-05-21T01:35:55.654Z,4.00
2023-05-21T01:38:30.590Z,3.90
2023-05-21T01:41:04.249Z,3.80
2023-05-21T01:43:35.162Z,4.22
2023-05-21T01:46:08.992Z,4.10
2023-05-21T01:48:37.958Z,4.43
2023-05-21T01:51:07.483Z,4.15
2023-05-21T01:53:38.871Z,4.38
2023-05-21T01:56:07.726Z,4.47
2023-05-21T01:58:36.231Z,3.97
2023-05-21T02:01:05.119Z,4.25
2023-05-21T02:03:33.314Z,4.40
2023-05-21T02:06:01.691Z,4.20
2023-05-21T02:08:29.822Z,4.65
2023-05-21T02:10:59.299Z,4.68
2023-05-21T02:13:29.877Z,4.23
2023-05-21T02:15:58.091Z,4.57
2023-05-21T02:18:26.488Z,4.38
2023-05-21T02:20:54.697Z,4.40
2023-05-21T02:23:22.836Z,4.22
2023-05-21T02:25:51.005Z,4.82
2023-05-21T02:28:21.395Z,4.70
2023-05-21T02:30:49.505Z,4.35
2023-05-21T02:33:17.987Z,4.93
2023-05-21T02:35:46.585Z,5.10
2023-05-21T02:38:19.570Z,4.85
2023-05-21T02:40:48.062Z,4.53
2023-05-21T02:43:16.445Z,4.28
2023-05-21T02:45:46.159Z,4.40
2023-05-21T02:48:14.329Z,5.20
2023-05-21T02:50:42.492Z,4.28
2023-05-21T02:53:10.590Z,4.60
2023-05-21T02:55:38.865Z,4.68
2023-05-21T02:58:07.182Z,5.35
2023-05-21T03:00:35.520Z,4.80
2023-05-21T03:03:05.137Z,4.78
2023-05-21T03:05:33.334Z,4.90
2023-05-21T03:08:01.459Z,5.05
2023-05-21T03:10:29.643Z,5.35
2023-05-21T03:12:57.740Z,4.82
2023-05-21T03:15:25.992Z,5.05
2023-05-21T03:17:55.589Z,5.07
2023-05-21T03:20:25.128Z,5.35
2023-05-21T03:22:54.924Z,4.85
2023-05-21T03:25:25.400Z,4.82
2023-05-21T03:27:53.839Z,5.00
2023-05-21T03:30:21.923Z,5.30
2023-05-21T03:32:51.488Z,5.60
2023-05-21T03:35:19.843Z,5.32
2023-05-21T03:37:49.306Z,5.40
2023-05-21T03:40:17.651Z,5.57
2023-05-21T03:42:45.773Z,5.70
2023-05-21T03:45:13.919Z,5.18
2023-05-21T03:47:43.109Z,6.00
2023-05-21T03:50:12.388Z,5.65
2023-05-21T03:52:40.751Z,5.47
2023-05-21T03:55:11.170Z,5.32
2023-05-21T03:57:39.374Z,5.47
2023-05-21T04:00:09.092Z,5.22
2023-05-21T04:02:37.397Z,5.45
2023-05-21T04:05:07.221Z,6.10
2023-05-21T04:07:38.338Z,5.07
2023-05-21T04:10:07.795Z,5.18
2023-05-21T04:12:37.333Z,5.68
2023-05-21T04:15:06.367Z,5.88
2023-05-21T04:17:34.631Z,5.60
2023-05-21T04:20:02.829Z,5.25
2023-05-21T04:22:30.898Z,5.57
2023-05-21T04:24:59.721Z,5.53
2023-05-21T04:27:27.824Z,6.13
2023-05-21T04:29:58.161Z,5.85
2023-05-21T04:32:26.349Z,6.20
2023-05-21T04:34:54.561Z,5.65
2023-05-21T04:37:24.732Z,6.45
2023-05-21T04:39:53.599Z,6.00
2023-05-21T04:42:24.291Z,6.30
2023-05-21T04:44:52.496Z,6.07
2023-05-21T04:47:24.350Z,6.38
2023-05-21T04:49:54.645Z,6.65
2023-05-21T04:52:27.459Z,6.10
2023-05-21T04:54:55.712Z,6.50
2023-05-21T04:57:24.627Z,6.10
2023-05-21T04:59:52.794Z,5.80
2023-05-21T05:02:21.126Z,6.55
2023-05-21T05:04:50.736Z,6.35
2023-05-21T05:07:21.657Z,6.43
2023-05-21T05:09:49.872Z,6.00
2023-05-21T05:12:18.143Z,6.50
2023-05-21T05:14:46.339Z,6.18
2023-05-21T05:17:15.789Z,6.10
2023-05-21T05:19:44.014Z,6.43
2023-05-21T05:22:13.733Z,6.55
2023-05-21T05:24:41.967Z,6.43
2023-05-21T05:27:10.080Z,6.35
2023-05-21T05:29:38.194Z,6.78
2023-05-21T05:32:07.231Z,6.32
2023-05-21T05:34:35.333Z,6.07
2023-05-21T05:37:04.419Z,6.10
2023-05-21T05:39:33.958Z,6.53
2023-05-21T05:42:02.233Z,6.60
2023-05-21T05:44:30.427Z,6.20
2023-05-21T05:46:58.560Z,6.03
2023-05-21T05:49:26.741Z,6.70
2023-05-21T05:51:55.127Z,6.30
2023-05-21T05:54:23.225Z,7.03
2023-05-21T05:56:52.874Z,6.60
2023-05-21T05:59:23.538Z,6.65
2023-05-21T06:01:51.636Z,6.60
2023-05-21T06:04:19.800Z,5.97
2023-05-21T06:06:48.344Z,7.40
2023-05-21T06:09:16.627Z,6.82
2023-05-21T06:11:44.825Z,6.95
2023-05-21T06:14:14.269Z,6.82
2023-05-21T06:16:42.445Z,6.70
2023-05-21T06:19:10.678Z,6.72
2023-05-21T06:21:38.808Z,6.18
2023-05-21T06:24:07.771Z,6.75
2023-05-21T06:26:35.926Z,5.90
2023-05-21T06:29:04.792Z,6.47
2023-05-21T06:31:34.366Z,6.43
2023-05-21T06:34:02.580Z,6.15
2023-05-21T06:36:32.540Z,6.80
2023-05-21T06:39:01.182Z,6.05
2023-05-21T06:41:29.517Z,6.57
2023-05-21T06:43:59.817Z,6.35
2023-05-21T06:46:28.091Z,6.40
2023-05-21T06:48:57.961Z,6.32
2023-05-21T06:51:26.137Z,6.68
2023-05-21T06:53:54.367Z,6.15
2023-05-21T06:56:22.837Z,6.47
2023-05-21T06:58:51.225Z,6.57
2023-05-21T07:01:19.448Z,6.30
2023-05-21T07:03:50.120Z,7.00
2023-05-21T07:06:19.620Z,6.65
2023-05-21T07:08:49.596Z,6.50
2023-05-21T07:11:17.891Z,5.93
2023-05-21T07:13:45.999Z,6.25
2023-05-21T07:16:14.140Z,6.43
2023-05-21T07:18:42.336Z,6.72
2023-05-21T07:21:10.653Z,5.82
2023-05-21T07:23:40.428Z,6.10
2023-05-21T07:26:08.641Z,5.78
2023-05-21T07:28:36.788Z,6.40
2023-05-21T07:31:08.449Z,6.55
2023-05-21T07:33:36.683Z,6.82
2023-05-21T07:36:05.174Z,6.53
2023-05-21T07:38:33.937Z,6.13
2023-05-21T07:41:06.469Z,6.25
2023-05-21T07:43:34.637Z,6.60
2023-05-21T07:46:02.824Z,6.30
2023-05-21T07:48:31.656Z,5.80
2023-05-21T07:51:01.604Z,6.97
2023-05-21T07:53:32.372Z,6.50
2023-05-21T07:56:02.754Z,6.35
2023-05-21T07:58:32.667Z,6.47
2023-05-21T08:01:00.800Z,6.00
2023-05-21T08:03:32.109Z,6.43
2023-05-21T08:06:00.432Z,6.85
2023-05-21T08:08:28.586Z,6.43
2023-05-21T08:10:57.169Z,6.57
2023-05-21T08:13:25.353Z,6.90
2023-05-21T08:15:55.378Z,7.07
2023-05-21T08:18:24.003Z,6.60
2023-05-21T08:20:52.221Z,6.20
2023-05-21T08:23:20.320Z,6.35
2023-05-21T08:25:48.556Z,6.57
2023-05-21T08:28:16.757Z,6.25
2023-05-21T08:30:44.868Z,6.43
2023-05-21T08:33:14.987Z,6.85
2023-05-21T08:35:45.845Z,7.25
2023-05-21T08:38:14.083Z,7.75
2023-05-21T08:40:42.335Z,7.32
2023-05-21T08:43:13.882Z,7.82
2023-05-21T08:45:45.761Z,7.32
2023-05-21T08:48:17.660Z,7.70
2023-05-21T08:50:47.195Z,8.13
2023-05-21T08:53:27.513Z,7.72
2023-05-21T08:55:57.645Z,7.03
2023-05-21T08:58:27.035Z,7.78
2023-05-21T09:00:56.314Z,7.53
2023-05-21T09:03:26.152Z,7.10
2023-05-21T09:05:55.167Z,7.95
2023-05-21T09:08:30.873Z,7.97
2023-05-21T09:10:59.118Z,7.85
2023-05-21T09:13:29.904Z,8.05
2023-05-21T09:15:58.308Z,8.32
2023-05-21T09:18:28.689Z,8.18
2023-05-21T09:20:57.636Z,8.25
2023-05-21T09:23:25.900Z,8.32
2023-05-21T09:25:54.000Z,8.68
2023-05-21T09:28:22.174Z,8.73
2023-05-21T09:30:54.155Z,7.82
2023-05-21T09:33:30.759Z,8.60
2023-05-21T09:35:58.960Z,8.63
2023-05-21T09:38:27.310Z,8.77
2023-05-21T09:40:57.630Z,8.95
2023-05-21T09:43:26.679Z,9.05
2023-05-21T09:45:56.891Z,8.73
2023-05-21T09:48:37.594Z,8.50
2023-05-21T09:51:13.855Z,9.23
2023-05-21T09:53:46.343Z,8.88
2023-05-21T09:56:14.630Z,9.27
2023-05-21T09:58:45.548Z,9.43
2023-05-21T10:01:14.334Z,10.68
2023-05-21T10:03:48.146Z,9.80
2023-05-21T10:06:20.975Z,9.02
2023-05-21T10:08:53.176Z,9.52
2023-05-21T10:11:25.125Z,9.63
2023-05-21T10:13:58.812Z,10.48
2023-05-21T10:16:27.048Z,10.55
2023-05-21T10:19:01.319Z,9.75
2023-05-21T10:21:29.712Z,10.18
2023-05-21T10:23:59.180Z,9.90
2023-05-21T10:26:27.884Z,10.60
2023-05-21T10:28:59.458Z,9.52
2023-05-21T10:31:27.960Z,9.73
2023-05-21T10:33:56.742Z,8.85
2023-05-21T10:36:27.562Z,9.93
2023-05-21T10:38:56.331Z,10.35
2023-05-21T10:41:27.200Z,10.15
2023-05-21T10:44:12.045Z,10.38
2023-05-21T10:47:07.336Z,9.75
2023-05-21T10:50:05.075Z,10.43
2023-05-21T10:52:51.823Z,10.63
2023-05-21T10:55:33.645Z,10.13
2023-05-21T10:58:32.647Z,10.48
2023-05-21T11:01:02.675Z,10.40
2023-05-21T11:03:35.011Z,11.07
2023-05-21T11:06:06.508Z,10.20
2023-05-21T11:08:37.558Z,11.13
2023-05-21T11:11:06.012Z,10.73
2023-05-21T11:13:48.861Z,10.70
2023-05-21T11:16:17.821Z,10.93
2023-05-21T11:18:59.246Z,10.13
2023-05-21T11:21:31.518Z,10.30
2023-05-21T11:24:11.212Z,10.73
2023-05-21T11:27:08.796Z,9.70
2023-05-21T11:29:45.322Z,9.77
2023-05-21T11:32:17.535Z,10.75
2023-05-21T11:34:49.558Z,9.82
2023-05-21T11:37:34.785Z,10.27
2023-05-21T11:40:23.948Z,8.35
2023-05-21T11:42:53.787Z,9.38
2023-05-21T11:45:23.114Z,10.25
2023-05-21T11:47:52.789Z,10.15
2023-05-21T11:50:21.210Z,11.00
2023-05-21T11:52:50.360Z,10.77
2023-05-21T11:55:26.239Z,10.07
2023-05-21T11:57:55.697Z,9.15
2023-05-21T12:00:26.109Z,10.27
2023-05-21T12:02:55.746Z,9.75
2023-05-21T12:05:24.572Z,9.57
2023-05-21T12:07:54.671Z,10.63
2023-05-21T12:10:24.855Z,10.82
2023-05-21T12:12:56.808Z,11.23
2023-05-21T12:17:54.578Z,10.35
2023-05-21T12:20:23.865Z,9.68
2023-05-21T12:22:52.008Z,9.75
2023-05-21T12:25:24.698Z,8.50
2023-05-21T12:27:58.946Z,9.95
2023-05-21T12:30:27.694Z,10.30
2023-05-21T12:32:59.276Z,10.35
2023-05-21T12:35:27.730Z,9.53
2023-05-21T12:37:58.881Z,9.23
2023-05-21T12:40:38.998Z,9.88
2023-05-21T12:43:08.071Z,9.77
2023-05-21T12:45:39.372Z,10.07
2023-05-21T12:48:08.062Z,10.07
2023-05-21T12:50:40.442Z,9.65
2023-05-21T12:53:10.673Z,9.55
2023-05-21T12:55:40.613Z,9.60
2023-05-21T12:58:09.458Z,9.75
2023-05-21T13:00:38.385Z,9.25
2023-05-21T13:03:07.494Z,9.90
2023-05-21T13:05:36.211Z,9.75
2023-05-21T13:08:06.818Z,9.07
2023-05-21T13:10:35.373Z,9.57
2023-05-21T13:13:05.098Z,9.45
2023-05-21T13:15:33.291Z,9.65
2023-05-21T13:18:01.873Z,9.60
2023-05-21T13:20:30.250Z,9.32
2023-05-21T13:23:03.429Z,9.40
2023-05-21T13:25:33.595Z,9.40
2023-05-21T13:28:06.040Z,9.48
2023-05-21T13:33:02.584Z,8.40
2023-05-21T13:35:32.325Z,8.57
2023-05-21T13:38:00.463Z,8.57
2023-05-21T13:40:28.619Z,9.40
2023-05-21T13:42:56.738Z,9.48
2023-05-21T13:45:29.372Z,9.27
2023-05-21T13:47:57.859Z,9.07
2023-05-21T13:50:26.514Z,9.95
2023-05-21T13:52:54.728Z,9.45
2023-05-21T13:55:22.838Z,9.32
2023-05-21T13:57:51.076Z,9.32
2023-05-21T14:00:19.190Z,10.05
2023-05-21T14:02:48.915Z,9.68
2023-05-21T14:05:17.272Z,9.20
2023-05-21T14:07:47.535Z,9.18
2023-05-21T14:10:15.916Z,9.88
2023-05-21T14:12:46.081Z,8.85
2023-05-21T14:15:14.320Z,9.40
2023-05-21T14:17:42.643Z,9.52
2023-05-21T14:20:13.131Z,8.48
2023-05-21T14:22:44.323Z,9.63
2023-05-21T14:25:12.591Z,10.10
2023-05-21T14:27:43.123Z,9.82
2023-05-21T14:30:12.050Z,9.25
2023-05-21T14:32:43.022Z,10.10
2023-05-21T14:35:12.682Z,9.30
2023-05-21T14:37:41.034Z,9.75
2023-05-21T14:40:10.381Z,8.70
2023-05-21T14:42:38.525Z,9.73
2023-05-21T14:45:18.615Z,11.00
2023-05-21T14:47:48.878Z,9.95
2023-05-21T14:50:21.823Z,10.23
2023-05-21T14:52:50.065Z,10.60
2023-05-21T14:55:18.716Z,9.93
2023-05-21T14:57:46.840Z,9.15
2023-05-21T15:00:15.685Z,9.93
2023-05-21T15:02:44.028Z,9.23
2023-05-21T15:05:12.279Z,9.85
2023-05-21T15:07:44.775Z,9.15
2023-05-21T15:10:13.278Z,10.68
2023-05-21T15:12:41.988Z,9.48
2023-05-21T15:15:11.080Z,10.35
2023-05-21T15:17:39.237Z,10.95
2023-05-21T15:20:10.793Z,9.88
2023-05-21T15:22:38.978Z,9.88
2023-05-21T15:25:09.540Z,10.32
2023-05-21T15:27:37.826Z,9.95
2023-05-21T15:30:07.297Z,9.55
2023-05-21T15:32:35.576Z,9.63
2023-05-21T15:35:03.915Z,10.40
2023-05-21T15:37:33.420Z,10.15
2023-05-21T15:40:02.219Z,11.40
2023-05-21T15:42:31.947Z,10.32
2023-05-21T15:45:00.429Z,9.60
2023-05-21T15:47:31.156Z,10.02
2023-05-21T15:50:00.477Z,10.23
2023-05-21T15:52:28.800Z,10.15
2023-05-21T15:54:57.061Z,10.18
2023-05-21T15:57:25.254Z,10.93
2023-05-21T15:59:55.000Z,9.73
2023-05-21T16:02:23.376Z,10.27
2023-05-21T16:04:52.262Z,9.48
2023-05-21T16:07:21.039Z,9.50
2023-05-21T16:09:49.185Z,8.85
2023-05-21T16:12:17.650Z,10.50
2023-05-21T16:14:45.927Z,10.10
2023-05-21T16:17:15.499Z,9.82
2023-05-21T16:19:43.622Z,10.00
2023-05-21T16:22:11.882Z,12.10
2023-05-21T16:24:42.294Z,13.15
2023-05-21T16:27:13.249Z,10.63
2023-05-21T16:29:41.313Z,10.80
2023-05-21T16:32:09.830Z,14.98
2023-05-21T16:34:39.654Z,10.73
2023-05-21T16:37:08.716Z,10.13
2023-05-21T16:39:36.905Z,9.25
2023-05-21T16:42:05.526Z,10.32
2023-05-21T16:44:33.721Z,11.07
2023-05-21T16:47:04.363Z,10.68
2023-05-21T16:49:32.513Z,10.18
2023-05-21T16:52:03.325Z,10.70
2023-05-21T16:54:31.524Z,10.50
2023-05-21T16:56:59.663Z,10.63
2023-05-21T16:59:31.177Z,9.75
2023-05-21T17:01:59.597Z,9.55
2023-05-21T17:04:27.781Z,10.45
2023-05-21T17:06:55.984Z,11.38
2023-05-21T17:09:25.540Z,10.38
2023-05-21T17:11:53.711Z,10.43
2023-05-21T17:14:33.022Z,11.18
2023-05-21T17:17:02.439Z,10.25
2023-05-21T17:19:30.645Z,10.63
2023-05-21T17:21:59.119Z,10.82
2023-05-21T17:24:28.911Z,10.88
2023-05-21T17:26:57.138Z,10.45
2023-05-21T17:29:25.490Z,10.95
2023-05-21T17:31:53.631Z,11.20
2023-05-21T17:34:24.618Z,10.80
2023-05-21T17:36:52.780Z,11.95
2023-05-21T17:39:23.912Z,10.68
2023-05-21T17:41:53.680Z,9.70
2023-05-21T17:44:22.008Z,11.40
2023-05-21T17:46:51.371Z,10.80
2023-05-21T17:49:19.882Z,11.35
2023-05-21T17:51:48.123Z,10.57
2023-05-21T17:54:16.626Z,11.32
2023-05-21T17:56:46.382Z,11.20
2023-05-21T17:59:16.681Z,11.32
2023-05-21T18:01:44.873Z,11.65
2023-05-21T18:04:13.287Z,11.18
2023-05-21T18:06:41.580Z,10.80
2023-05-21T18:09:10.635Z,10.10
2023-05-21T18:11:38.810Z,10.52
2023-05-21T18:14:06.940Z,10.13
2023-05-21T18:16:36.547Z,11.13
2023-05-21T18:19:06.725Z,10.82
2023-05-21T18:21:35.084Z,11.43
2023-05-21T18:24:03.280Z,11.85
2023-05-21T18:26:31.393Z,10.75
2023-05-21T18:28:59.979Z,12.00
2023-05-21T18:31:28.313Z,11.07
2023-05-21T18:33:57.827Z,11.77
2023-05-21T18:36:26.696Z,12.02
2023-05-21T18:38:54.871Z,10.45
2023-05-21T18:41:23.271Z,10.93
2023-05-21T18:43:51.420Z,10.98
2023-05-21T18:46:19.915Z,11.02
2023-05-21T18:48:48.688Z,11.23
2023-05-21T18:51:18.295Z,10.52
2023-05-21T18:53:46.461Z,10.35
2023-05-21T18:56:15.119Z,10.35
2023-05-21T18:58:43.372Z,11.20
2023-05-21T19:01:11.836Z,10.35
2023-05-21T19:03:40.107Z,11.35
2023-05-21T19:06:09.382Z,10.27
2023-05-21T19:08:39.091Z,11.57
2023-05-21T19:11:07.534Z,11.07
2023-05-21T19:13:38.656Z,11.32
2023-05-21T19:16:10.998Z,11.38
2023-05-21T19:18:42.041Z,10.57
2023-05-21T19:21:11.783Z,11.40
2023-05-21T19:23:52.018Z,10.80
2023-05-21T19:26:22.422Z,10.52
2023-05-21T19:28:53.419Z,11.20
2023-05-21T19:31:22.523Z,11.38
2023-05-21T19:33:50.852Z,11.88
2023-05-21T19:36:19.611Z,11.60
2023-05-21T19:38:49.675Z,11.48
2023-05-21T19:41:18.159Z,11.13
2023-05-21T19:43:49.332Z,12.50
2023-05-21T19:46:20.126Z,12.07
2023-05-21T19:48:49.043Z,11.48
2023-05-21T19:51:17.542Z,12.18
2023-05-21T19:53:45.698Z,12.38
2023-05-21T19:56:15.371Z,12.02
2023-05-21T19:58:47.200Z,11.13
2023-05-21T20:01:15.938Z,11.50
2023-05-21T20:03:45.480Z,11.73
2023-05-21T20:06:15.541Z,11.40
2023-05-21T20:08:44.243Z,12.18
2023-05-21T20:11:12.473Z,11.63
2023-05-21T20:13:42.647Z,11.77
2023-05-21T20:16:12.854Z,12.13
2023-05-21T20:18:41.714Z,12.00
2023-05-21T20:21:10.602Z,11.98
2023-05-21T20:23:38.783Z,12.02
2023-05-21T20:26:07.011Z,11.98
2023-05-21T20:28:35.615Z,12.45
2023-05-21T20:31:05.914Z,11.88
2023-05-21T20:33:38.730Z,12.35
2023-05-21T20:36:08.812Z,12.45
2023-05-21T20:38:42.333Z,12.27
2023-05-21T20:41:11.291Z,12.68
2023-05-21T20:43:39.596Z,12.93
2023-05-21T20:46:09.247Z,11.98
2023-05-21T20:48:37.887Z,12.80
2023-05-21T20:51:06.459Z,11.80
2023-05-21T20:53:34.675Z,12.35
2023-05-21T20:56:02.886Z,13.63
2023-05-21T20:58:34.081Z,14.15
2023-05-21T21:01:02.422Z,13.60
2023-05-21T21:03:35.226Z,13.43
2023-05-21T21:06:04.482Z,14.18
2023-05-21T21:08:34.781Z,13.57
2023-05-21T21:11:03.115Z,13.93
2023-05-21T21:13:31.257Z,14.32
2023-05-21T21:15:59.501Z,14.60
2023-05-21T21:18:27.708Z,15.07
2023-05-21T21:20:57.648Z,14.48
2023-05-21T21:23:26.180Z,14.77
2023-05-21T21:25:54.696Z,14.52
2023-05-21T21:28:22.908Z,14.40
2023-05-21T21:30:51.538Z,15.25
2023-05-21T21:33:24.486Z,15.65
2023-05-21T21:35:52.731Z,15.45
2023-05-21T21:38:22.379Z,14.43
2023-05-21T21:40:50.845Z,16.35
2023-05-21T21:43:18.915Z,15.45
2023-05-21T21:45:47.194Z,15.88
2023-05-21T21:48:16.581Z,15.63
2023-05-21T21:50:44.953Z,15.82
2023-05-21T21:53:15.378Z,14.77
2023-05-21T21:55:44.944Z,15.27
2023-05-21T21:58:13.559Z,15.80
2023-05-21T22:00:41.859Z,14.90
2023-05-21T22:03:11.646Z,14.50
2023-05-21T22:05:42.649Z,14.90
2023-05-21T22:08:11.076Z,15.73
2023-05-21T22:10:39.672Z,15.20
2023-05-21T22:13:09.992Z,15.98
2023-05-21T22:15:38.488Z,15.73
2023-05-21T22:18:09.551Z,15.90
2023-05-21T22:20:38.355Z,15.90
2023-05-21T22:23:07.374Z,15.65
2023-05-21T22:25:36.138Z,15.93
2023-05-21T22:28:04.317Z,16.85
2023-05-21T22:30:33.861Z,16.48
2023-05-21T22:33:04.762Z,16.52
2023-05-21T22:35:33.206Z,17.05
2023-05-21T22:38:02.415Z,16.63
2023-05-21T22:40:30.564Z,16.75
2023-05-21T22:42:58.745Z,16.75
2023-05-21T22:45:26.830Z,16.85
2023-05-21T22:47:56.760Z,17.05
2023-05-21T22:50:29.139Z,17.25
2023-05-21T22:52:57.413Z,16.88
2023-05-21T22:55:25.588Z,19.25
2023-05-21T22:57:53.804Z,18.45
2023-05-21T23:00:26.174Z,18.52
2023-05-21T23:02:54.933Z,19.33
2023-05-21T23:05:24.757Z,19.40
2023-05-21T23:07:53.101Z,19.67
2023-05-21T23:10:21.174Z,19.10
2023-05-21T23:12:49.206Z,20.60
2023-05-21T23:15:17.556Z,20.27
2023-05-21T23:17:45.907Z,21.17
2023-05-21T23:20:15.508Z,21.38
2023-05-21T23:22:44.967Z,21.23
2023-05-21T23:25:13.037Z,20.45
2023-05-21T23:27:41.079Z,22.02
2023-05-21T23:30:10.770Z,21.63
2023-05-21T23:32:39.049Z,20.58
2023-05-21T23:35:08.262Z,21.63
2023-05-21T23:37:38.605Z,23.00
2023-05-21T23:40:09.915Z,22.38
2023-05-21T23:42:38.169Z,23.58
2023-05-21T23:45:07.034Z,22.10
2023-05-21T23:47:35.175Z,23.50
2023-05-21T23:50:03.289Z,22.23
2023-05-21T23:52:31.473Z,22.95
2023-05-21T23:54:59.633Z,25.30
2023-05-21T23:57:31.962Z,24.23
